sensor_id;sensor_type;location;lat;lon;timestamp;temperature;humidity
41939;DHT22;23057;48.554;14.454;2023-06-10T00:02:13;12.80;99.90
41939;DHT22;23057;48.554;14.454;2023-06-10T00:04:44;12.80;99.90
41939;DHT22;23057;48.554;14.454;2023-06-10T00:07:15;12.90;99.90
41939;DHT22;23057;48.554;14.454;2023-06-10T00:09:45;12.90;99.90
41939;DHT22;23057;48.554;14.454;2023-06-10T00:12:16;12.90;99.90
41939;DHT22;23057;48.554;14.454;2023-06-10T00:14:48;12.80;99.90
41939;DHT22;23057;48.554;14.454;2023-06-10T00:17:21;12.80;99.90
41939;DHT22;23057;48.554;14.454;2023-06-10T00:19:54;12.90;99.90
41939;DHT22;23057;48.554;14.454;2023-06-10T00:22:25;13.00;99.90
41939;DHT22;23057;48.554;14.454;2023-06-10T00:24:59;13.00;99.90
41939;DHT22;23057;48.554;14.454;2023-06-10T00:27:30;13.10;99.90
41939;DHT22;23057;48.554;14.454;2023-06-10T00:30:05;13.10;99.90
41939;DHT22;23057;48.554;14.454;2023-06-10T00:32:37;13.00;99.90
41939;DHT22;23057;48.554;14.454;2023-06-10T00:35:08;13.10;99.90
41939;DHT22;23057;48.554;14.454;2023-06-10T00:37:39;12.90;99.90
41939;DHT22;23057;48.554;14.454;2023-06-10T00:40:10;12.80;99.90
41939;DHT22;23057;48.554;14.454;2023-06-10T00:42:41;12.70;99.90
41939;DHT22;23057;48.554;14.454;2023-06-10T00:45:12;12.70;99.90
41939;DHT22;23057;48.554;14.454;2023-06-10T00:47:43;12.70;99.90
41939;DHT22;23057;48.554;14.454;2023-06-10T00:50:14;12.70;99.90
41939;DHT22;23057;48.554;14.454;2023-06-10T00:52:45;12.80;99.90
41939;DHT22;23057;48.554;14.454;2023-06-10T00:55:18;12.70;99.90
41939;DHT22;23057;48.554;14.454;2023-06-10T00:57:50;12.80;99.90
41939;DHT22;23057;48.554;14.454;2023-06-10T01:00:21;12.80;99.90
41939;DHT22;23057;48.554;14.454;2023-06-10T01:02:55;12.80;99.90
41939;DHT22;23057;48.554;14.454;2023-06-10T01:05:27;12.80;99.90
41939;DHT22;23057;48.554;14.454;2023-06-10T01:08:03;12.60;99.90
41939;DHT22;23057;48.554;14.454;2023-06-10T01:10:54;12.60;99.90
41939;DHT22;23057;48.554;14.454;2023-06-10T01:13:31;12.50;99.90
41939;DHT22;23057;48.554;14.454;2023-06-10T01:16:06;12.50;99.90
41939;DHT22;23057;48.554;14.454;2023-06-10T01:18:37;12.50;99.90
41939;DHT22;23057;48.554;14.454;2023-06-10T01:21:12;12.60;99.90
41939;DHT22;23057;48.554;14.454;2023-06-10T01:23:52;12.60;99.90
41939;DHT22;23057;48.554;14.454;2023-06-10T01:26:28;12.50;99.90
41939;DHT22;23057;48.554;14.454;2023-06-10T01:29:17;12.50;99.90
41939;DHT22;23057;48.554;14.454;2023-06-10T01:32:00;12.50;99.90
41939;DHT22;23057;48.554;14.454;2023-06-10T01:34:38;12.60;99.90
41939;DHT22;23057;48.554;14.454;2023-06-10T01:37:13;12.60;99.90
41939;DHT22;23057;48.554;14.454;2023-06-10T01:39:48;12.50;99.90
41939;DHT22;23057;48.554;14.454;2023-06-10T01:42:20;12.60;99.90
41939;DHT22;23057;48.554;14.454;2023-06-10T01:44:52;12.60;99.90
41939;DHT22;23057;48.554;14.454;2023-06-10T01:47:23;12.60;99.90
41939;DHT22;23057;48.554;14.454;2023-06-10T01:49:54;12.60;99.90
41939;DHT22;23057;48.554;14.454;2023-06-10T01:52:25;12.60;99.90
41939;DHT22;23057;48.554;14.454;2023-06-10T01:54:55;12.60;99.90
41939;DHT22;23057;48.554;14.454;2023-06-10T01:57:26;12.60;99.90
41939;DHT22;23057;48.554;14.454;2023-06-10T01:59:57;12.70;99.90
41939;DHT22;23057;48.554;14.454;2023-06-10T02:02:27;12.70;99.90
41939;DHT22;23057;48.554;14.454;2023-06-10T02:04:58;12.70;99.90
41939;DHT22;23057;48.554;14.454;2023-06-10T02:07:29;12.70;99.90
41939;DHT22;23057;48.554;14.454;2023-06-10T02:09:59;12.90;99.90
41939;DHT22;23057;48.554;14.454;2023-06-10T02:12:30;12.90;99.90
41939;DHT22;23057;48.554;14.454;2023-06-10T02:15:01;13.00;99.90
41939;DHT22;23057;48.554;14.454;2023-06-10T02:17:32;13.00;99.90
41939;DHT22;23057;48.554;14.454;2023-06-10T02:20:04;13.10;99.90
41939;DHT22;23057;48.554;14.454;2023-06-10T02:22:37;13.10;99.90
41939;DHT22;23057;48.554;14.454;2023-06-10T02:25:08;13.20;99.90
41939;DHT22;23057;48.554;14.454;2023-06-10T02:27:39;13.10;99.90
41939;DHT22;23057;48.554;14.454;2023-06-10T02:30:10;13.10;99.90
41939;DHT22;23057;48.554;14.454;2023-06-10T02:32:41;13.20;99.90
41939;DHT22;23057;48.554;14.454;2023-06-10T02:35:12;13.20;99.90
41939;DHT22;23057;48.554;14.454;2023-06-10T02:37:43;13.20;99.90
41939;DHT22;23057;48.554;14.454;2023-06-10T02:40:14;13.30;99.90
41939;DHT22;23057;48.554;14.454;2023-06-10T02:42:45;13.40;99.90
41939;DHT22;23057;48.554;14.454;2023-06-10T02:45:15;13.40;99.90
41939;DHT22;23057;48.554;14.454;2023-06-10T02:47:49;13.50;99.90
41939;DHT22;23057;48.554;14.454;2023-06-10T02:50:20;13.50;99.90
41939;DHT22;23057;48.554;14.454;2023-06-10T02:52:50;13.50;99.90
41939;DHT22;23057;48.554;14.454;2023-06-10T02:55:21;13.70;99.90
41939;DHT22;23057;48.554;14.454;2023-06-10T02:57:52;13.70;99.90
41939;DHT22;23057;48.554;14.454;2023-06-10T03:00:24;13.80;99.90
41939;DHT22;23057;48.554;14.454;2023-06-10T03:02:55;13.90;99.90
41939;DHT22;23057;48.554;14.454;2023-06-10T03:05:27;13.90;99.90
41939;DHT22;23057;48.554;14.454;2023-06-10T03:07:59;13.90;99.90
41939;DHT22;23057;48.554;14.454;2023-06-10T03:10:30;13.90;99.90
41939;DHT22;23057;48.554;14.454;2023-06-10T03:13:03;13.90;99.90
41939;DHT22;23057;48.554;14.454;2023-06-10T03:15:33;13.90;99.90
41939;DHT22;23057;48.554;14.454;2023-06-10T03:18:06;13.90;99.90
41939;DHT22;23057;48.554;14.454;2023-06-10T03:20:38;13.90;99.90
41939;DHT22;23057;48.554;14.454;2023-06-10T03:23:10;13.90;99.90
41939;DHT22;23057;48.554;14.454;2023-06-10T03:25:40;13.90;99.90
41939;DHT22;23057;48.554;14.454;2023-06-10T03:28:11;13.90;99.90
41939;DHT22;23057;48.554;14.454;2023-06-10T03:30:42;13.90;99.90
41939;DHT22;23057;48.554;14.454;2023-06-10T03:33:12;13.90;99.90
41939;DHT22;23057;48.554;14.454;2023-06-10T03:35:44;14.00;99.90
41939;DHT22;23057;48.554;14.454;2023-06-10T03:38:15;13.90;99.90
41939;DHT22;23057;48.554;14.454;2023-06-10T03:40:45;14.00;99.90
41939;DHT22;23057;48.554;14.454;2023-06-10T03:43:16;14.00;99.90
41939;DHT22;23057;48.554;14.454;2023-06-10T03:45:47;14.00;99.90
41939;DHT22;23057;48.554;14.454;2023-06-10T03:48:18;14.00;99.90
41939;DHT22;23057;48.554;14.454;2023-06-10T03:50:49;14.00;99.90
41939;DHT22;23057;48.554;14.454;2023-06-10T03:53:21;14.00;99.90
41939;DHT22;23057;48.554;14.454;2023-06-10T03:55:51;14.00;99.90
41939;DHT22;23057;48.554;14.454;2023-06-10T03:58:22;14.10;99.90
41939;DHT22;23057;48.554;14.454;2023-06-10T04:00:53;14.10;99.90
41939;DHT22;23057;48.554;14.454;2023-06-10T04:03:25;14.20;99.90
41939;DHT22;23057;48.554;14.454;2023-06-10T04:05:56;14.20;99.90
41939;DHT22;23057;48.554;14.454;2023-06-10T04:08:27;14.20;99.90
41939;DHT22;23057;48.554;14.454;2023-06-10T04:10:58;14.20;99.90
41939;DHT22;23057;48.554;14.454;2023-06-10T04:13:29;14.20;99.90
41939;DHT22;23057;48.554;14.454;2023-06-10T04:16:00;14.20;99.90
41939;DHT22;23057;48.554;14.454;2023-06-10T04:18:31;14.20;99.90
41939;DHT22;23057;48.554;14.454;2023-06-10T04:21:01;14.20;99.90
41939;DHT22;23057;48.554;14.454;2023-06-10T04:23:32;14.30;99.90
41939;DHT22;23057;48.554;14.454;2023-06-10T04:26:03;14.30;99.90
41939;DHT22;23057;48.554;14.454;2023-06-10T04:28:36;14.30;99.90
41939;DHT22;23057;48.554;14.454;2023-06-10T04:31:06;14.20;99.90
41939;DHT22;23057;48.554;14.454;2023-06-10T04:33:37;14.20;99.90
41939;DHT22;23057;48.554;14.454;2023-06-10T04:36:08;14.30;99.90
41939;DHT22;23057;48.554;14.454;2023-06-10T04:38:39;14.20;99.90
41939;DHT22;23057;48.554;14.454;2023-06-10T04:41:11;14.30;99.90
41939;DHT22;23057;48.554;14.454;2023-06-10T04:43:41;14.30;99.90
41939;DHT22;23057;48.554;14.454;2023-06-10T04:46:12;14.30;99.90
41939;DHT22;23057;48.554;14.454;2023-06-10T04:48:43;14.30;99.90
41939;DHT22;23057;48.554;14.454;2023-06-10T04:51:15;14.40;99.90
41939;DHT22;23057;48.554;14.454;2023-06-10T04:53:46;14.40;99.90
41939;DHT22;23057;48.554;14.454;2023-06-10T04:56:17;14.50;99.90
41939;DHT22;23057;48.554;14.454;2023-06-10T04:58:48;14.60;99.90
41939;DHT22;23057;48.554;14.454;2023-06-10T05:01:19;14.60;99.90
41939;DHT22;23057;48.554;14.454;2023-06-10T05:03:49;14.60;99.90
41939;DHT22;23057;48.554;14.454;2023-06-10T05:06:20;14.60;99.90
41939;DHT22;23057;48.554;14.454;2023-06-10T05:08:51;14.60;99.90
41939;DHT22;23057;48.554;14.454;2023-06-10T05:11:22;14.70;99.90
41939;DHT22;23057;48.554;14.454;2023-06-10T05:13:52;14.60;99.90
41939;DHT22;23057;48.554;14.454;2023-06-10T05:16:23;14.80;99.90
41939;DHT22;23057;48.554;14.454;2023-06-10T05:18:54;14.90;99.90
41939;DHT22;23057;48.554;14.454;2023-06-10T05:21:25;14.90;99.90
41939;DHT22;23057;48.554;14.454;2023-06-10T05:23:56;14.80;99.90
41939;DHT22;23057;48.554;14.454;2023-06-10T05:26:26;14.80;99.90
41939;DHT22;23057;48.554;14.454;2023-06-10T05:28:59;14.80;99.90
41939;DHT22;23057;48.554;14.454;2023-06-10T05:31:29;14.90;99.90
41939;DHT22;23057;48.554;14.454;2023-06-10T05:34:00;14.90;99.90
41939;DHT22;23057;48.554;14.454;2023-06-10T05:36:31;15.10;99.90
41939;DHT22;23057;48.554;14.454;2023-06-10T05:39:02;15.10;99.90
41939;DHT22;23057;48.554;14.454;2023-06-10T05:41:33;15.10;99.90
41939;DHT22;23057;48.554;14.454;2023-06-10T05:44:04;15.30;99.90
41939;DHT22;23057;48.554;14.454;2023-06-10T05:46:35;15.30;99.90
41939;DHT22;23057;48.554;14.454;2023-06-10T05:49:05;15.30;99.90
41939;DHT22;23057;48.554;14.454;2023-06-10T05:51:36;15.40;99.90
41939;DHT22;23057;48.554;14.454;2023-06-10T05:54:07;15.40;99.90
41939;DHT22;23057;48.554;14.454;2023-06-10T05:56:38;15.50;99.90
41939;DHT22;23057;48.554;14.454;2023-06-10T05:59:09;15.40;99.90
41939;DHT22;23057;48.554;14.454;2023-06-10T06:01:40;15.40;99.90
41939;DHT22;23057;48.554;14.454;2023-06-10T06:04:10;15.40;99.90
41939;DHT22;23057;48.554;14.454;2023-06-10T06:06:41;15.60;99.90
41939;DHT22;23057;48.554;14.454;2023-06-10T06:09:12;15.90;99.90
41939;DHT22;23057;48.554;14.454;2023-06-10T06:11:43;15.90;99.90
41939;DHT22;23057;48.554;14.454;2023-06-10T06:14:13;16.20;99.90
41939;DHT22;23057;48.554;14.454;2023-06-10T06:16:44;16.30;99.90
41939;DHT22;23057;48.554;14.454;2023-06-10T06:19:15;16.40;99.90
41939;DHT22;23057;48.554;14.454;2023-06-10T06:21:46;16.40;99.90
41939;DHT22;23057;48.554;14.454;2023-06-10T06:24:16;16.20;99.90
41939;DHT22;23057;48.554;14.454;2023-06-10T06:26:47;16.30;99.90
41939;DHT22;23057;48.554;14.454;2023-06-10T06:29:18;16.20;99.90
41939;DHT22;23057;48.554;14.454;2023-06-10T06:31:48;16.30;99.90
41939;DHT22;23057;48.554;14.454;2023-06-10T06:34:19;16.10;99.90
41939;DHT22;23057;48.554;14.454;2023-06-10T06:36:50;16.30;99.90
41939;DHT22;23057;48.554;14.454;2023-06-10T06:39:21;16.10;99.90
41939;DHT22;23057;48.554;14.454;2023-06-10T06:41:51;16.20;99.90
41939;DHT22;23057;48.554;14.454;2023-06-10T06:44:23;16.30;99.90
41939;DHT22;23057;48.554;14.454;2023-06-10T06:46:54;16.30;99.90
41939;DHT22;23057;48.554;14.454;2023-06-10T06:49:24;16.60;99.90
41939;DHT22;23057;48.554;14.454;2023-06-10T06:51:55;16.50;99.90
41939;DHT22;23057;48.554;14.454;2023-06-10T06:54:26;16.60;99.90
41939;DHT22;23057;48.554;14.454;2023-06-10T06:56:57;16.50;99.90
41939;DHT22;23057;48.554;14.454;2023-06-10T06:59:27;16.30;99.90
41939;DHT22;23057;48.554;14.454;2023-06-10T07:01:58;16.40;99.90
41939;DHT22;23057;48.554;14.454;2023-06-10T07:04:29;16.50;99.90
41939;DHT22;23057;48.554;14.454;2023-06-10T07:07:00;16.80;99.90
41939;DHT22;23057;48.554;14.454;2023-06-10T07:09:31;17.40;99.90
41939;DHT22;23057;48.554;14.454;2023-06-10T07:12:02;18.10;99.90
41939;DHT22;23057;48.554;14.454;2023-06-10T07:14:33;18.00;99.90
41939;DHT22;23057;48.554;14.454;2023-06-10T07:17:04;17.90;99.90
41939;DHT22;23057;48.554;14.454;2023-06-10T07:19:35;17.80;99.90
41939;DHT22;23057;48.554;14.454;2023-06-10T07:22:05;17.20;99.90
41939;DHT22;23057;48.554;14.454;2023-06-10T07:24:36;16.90;99.90
41939;DHT22;23057;48.554;14.454;2023-06-10T07:27:07;16.80;99.90
41939;DHT22;23057;48.554;14.454;2023-06-10T07:29:39;16.60;99.90
41939;DHT22;23057;48.554;14.454;2023-06-10T07:32:10;16.60;99.90
41939;DHT22;23057;48.554;14.454;2023-06-10T07:34:41;16.60;99.90
41939;DHT22;23057;48.554;14.454;2023-06-10T07:37:11;16.70;99.90
41939;DHT22;23057;48.554;14.454;2023-06-10T07:39:42;16.80;99.90
41939;DHT22;23057;48.554;14.454;2023-06-10T07:42:13;17.00;99.90
41939;DHT22;23057;48.554;14.454;2023-06-10T07:44:44;17.10;99.90
41939;DHT22;23057;48.554;14.454;2023-06-10T07:47:15;17.30;99.90
41939;DHT22;23057;48.554;14.454;2023-06-10T07:49:45;17.20;99.90
41939;DHT22;23057;48.554;14.454;2023-06-10T07:52:16;17.50;99.90
41939;DHT22;23057;48.554;14.454;2023-06-10T07:54:47;17.50;99.90
41939;DHT22;23057;48.554;14.454;2023-06-10T07:57:18;17.30;99.90
41939;DHT22;23057;48.554;14.454;2023-06-10T07:59:49;17.30;99.90
41939;DHT22;23057;48.554;14.454;2023-06-10T08:02:20;17.30;99.90
41939;DHT22;23057;48.554;14.454;2023-06-10T08:04:51;17.20;99.90
41939;DHT22;23057;48.554;14.454;2023-06-10T08:07:21;17.30;99.90
41939;DHT22;23057;48.554;14.454;2023-06-10T08:09:52;17.60;99.90
41939;DHT22;23057;48.554;14.454;2023-06-10T08:12:25;17.90;99.90
41939;DHT22;23057;48.554;14.454;2023-06-10T08:14:55;17.90;99.90
41939;DHT22;23057;48.554;14.454;2023-06-10T08:17:26;17.90;99.90
41939;DHT22;23057;48.554;14.454;2023-06-10T08:19:57;18.10;99.90
41939;DHT22;23057;48.554;14.454;2023-06-10T08:22:28;18.00;99.90
41939;DHT22;23057;48.554;14.454;2023-06-10T08:24:59;18.00;99.90
41939;DHT22;23057;48.554;14.454;2023-06-10T08:27:30;18.30;99.90
41939;DHT22;23057;48.554;14.454;2023-06-10T08:30:01;18.90;99.90
41939;DHT22;23057;48.554;14.454;2023-06-10T08:32:32;18.90;30.90
41939;DHT22;23057;48.554;14.454;2023-06-10T08:35:03;19.20;99.90
41939;DHT22;23057;48.554;14.454;2023-06-10T08:37:34;19.30;49.60
41939;DHT22;23057;48.554;14.454;2023-06-10T08:40:05;19.20;1.00
41939;DHT22;23057;48.554;14.454;2023-06-10T08:42:42;19.00;99.90
41939;DHT22;23057;48.554;14.454;2023-06-10T08:45:20;19.10;99.90
41939;DHT22;23057;48.554;14.454;2023-06-10T08:47:53;20.00;1.00
41939;DHT22;23057;48.554;14.454;2023-06-10T08:50:28;20.00;99.90
41939;DHT22;23057;48.554;14.454;2023-06-10T08:53:00;19.60;99.90
41939;DHT22;23057;48.554;14.454;2023-06-10T08:55:37;19.00;99.90
41939;DHT22;23057;48.554;14.454;2023-06-10T08:58:12;18.60;99.90
41939;DHT22;23057;48.554;14.454;2023-06-10T09:00:44;18.60;99.90
41939;DHT22;23057;48.554;14.454;2023-06-10T09:03:15;18.90;1.00
41939;DHT22;23057;48.554;14.454;2023-06-10T09:05:47;18.90;99.90
41939;DHT22;23057;48.554;14.454;2023-06-10T09:08:19;19.10;88.30
41939;DHT22;23057;48.554;14.454;2023-06-10T09:10:50;18.70;99.90
41939;DHT22;23057;48.554;14.454;2023-06-10T09:13:21;18.70;99.90
41939;DHT22;23057;48.554;14.454;2023-06-10T09:15:52;18.90;1.00
41939;DHT22;23057;48.554;14.454;2023-06-10T09:18:23;19.00;99.90
41939;DHT22;23057;48.554;14.454;2023-06-10T09:20:54;18.80;1.00
41939;DHT22;23057;48.554;14.454;2023-06-10T09:23:25;18.70;99.90
41939;DHT22;23057;48.554;14.454;2023-06-10T09:25:56;18.50;99.90
41939;DHT22;23057;48.554;14.454;2023-06-10T09:28:28;18.50;1.00
41939;DHT22;23057;48.554;14.454;2023-06-10T09:31:05;18.40;99.90
41939;DHT22;23057;48.554;14.454;2023-06-10T09:33:40;18.50;1.00
41939;DHT22;23057;48.554;14.454;2023-06-10T09:36:11;18.70;99.90
41939;DHT22;23057;48.554;14.454;2023-06-10T09:38:42;18.60;1.00
41939;DHT22;23057;48.554;14.454;2023-06-10T09:41:13;18.70;38.20
41939;DHT22;23057;48.554;14.454;2023-06-10T09:43:45;18.50;99.90
41939;DHT22;23057;48.554;14.454;2023-06-10T09:46:17;18.60;19.30
41939;DHT22;23057;48.554;14.454;2023-06-10T09:48:50;18.70;1.00
41939;DHT22;23057;48.554;14.454;2023-06-10T09:51:20;18.40;1.00
41939;DHT22;23057;48.554;14.454;2023-06-10T09:53:53;18.30;99.90
41939;DHT22;23057;48.554;14.454;2023-06-10T09:56:32;18.50;99.90
41939;DHT22;23057;48.554;14.454;2023-06-10T09:59:07;18.20;99.90
41939;DHT22;23057;48.554;14.454;2023-06-10T10:01:37;18.40;1.00
41939;DHT22;23057;48.554;14.454;2023-06-10T10:04:08;18.60;99.90
41939;DHT22;23057;48.554;14.454;2023-06-10T10:06:39;18.80;99.90
41939;DHT22;23057;48.554;14.454;2023-06-10T10:09:10;18.90;99.90
41939;DHT22;23057;48.554;14.454;2023-06-10T10:11:41;19.00;28.10
41939;DHT22;23057;48.554;14.454;2023-06-10T10:14:15;18.80;99.90
41939;DHT22;23057;48.554;14.454;2023-06-10T10:16:48;19.00;99.90
41939;DHT22;23057;48.554;14.454;2023-06-10T10:19:28;19.30;99.90
41939;DHT22;23057;48.554;14.454;2023-06-10T10:22:07;19.60;99.90
41939;DHT22;23057;48.554;14.454;2023-06-10T10:24:42;19.90;34.00
41939;DHT22;23057;48.554;14.454;2023-06-10T10:27:28;20.70;1.00
41939;DHT22;23057;48.554;14.454;2023-06-10T10:30:05;20.90;99.90
41939;DHT22;23057;48.554;14.454;2023-06-10T10:35:26;20.60;99.90
41939;DHT22;23057;48.554;14.454;2023-06-10T10:37:57;20.30;99.90
41939;DHT22;23057;48.554;14.454;2023-06-10T10:40:30;19.60;1.00
41939;DHT22;23057;48.554;14.454;2023-06-10T10:43:03;19.80;99.90
41939;DHT22;23057;48.554;14.454;2023-06-10T10:45:36;20.00;1.00
41939;DHT22;23057;48.554;14.454;2023-06-10T10:48:09;19.70;2.60
41939;DHT22;23057;48.554;14.454;2023-06-10T10:50:42;19.50;8.10
41939;DHT22;23057;48.554;14.454;2023-06-10T10:53:12;19.30;99.90
41939;DHT22;23057;48.554;14.454;2023-06-10T10:56:01;19.30;99.90
41939;DHT22;23057;48.554;14.454;2023-06-10T10:58:43;19.80;49.10
41939;DHT22;23057;48.554;14.454;2023-06-10T11:01:43;19.30;1.00
41939;DHT22;23057;48.554;14.454;2023-06-10T11:04:17;19.30;99.90
41939;DHT22;23057;48.554;14.454;2023-06-10T11:06:52;19.30;99.90
41939;DHT22;23057;48.554;14.454;2023-06-10T11:09:25;19.20;99.90
41939;DHT22;23057;48.554;14.454;2023-06-10T11:12:00;19.10;99.90
41939;DHT22;23057;48.554;14.454;2023-06-10T11:14:31;18.80;1.00
41939;DHT22;23057;48.554;14.454;2023-06-10T11:17:03;18.60;99.90
41939;DHT22;23057;48.554;14.454;2023-06-10T11:19:50;18.70;99.90
41939;DHT22;23057;48.554;14.454;2023-06-10T11:22:20;18.80;99.90
41939;DHT22;23057;48.554;14.454;2023-06-10T11:24:51;18.60;90.30
41939;DHT22;23057;48.554;14.454;2023-06-10T11:27:23;18.80;99.90
41939;DHT22;23057;48.554;14.454;2023-06-10T11:29:57;18.50;8.80
41939;DHT22;23057;48.554;14.454;2023-06-10T11:32:34;19.00;99.90
41939;DHT22;23057;48.554;14.454;2023-06-10T11:35:05;19.30;1.00
41939;DHT22;23057;48.554;14.454;2023-06-10T11:37:38;19.30;99.90
41939;DHT22;23057;48.554;14.454;2023-06-10T11:40:09;19.00;99.90
41939;DHT22;23057;48.554;14.454;2023-06-10T11:42:40;19.10;99.90
41939;DHT22;23057;48.554;14.454;2023-06-10T11:45:18;19.20;1.00
41939;DHT22;23057;48.554;14.454;2023-06-10T11:47:59;19.10;99.90
41939;DHT22;23057;48.554;14.454;2023-06-10T11:50:31;19.20;22.50
41939;DHT22;23057;48.554;14.454;2023-06-10T11:53:03;19.20;1.00
41939;DHT22;23057;48.554;14.454;2023-06-10T11:55:44;19.10;94.00
41939;DHT22;23057;48.554;14.454;2023-06-10T11:58:18;18.80;93.30
41939;DHT22;23057;48.554;14.454;2023-06-10T12:00:54;18.60;99.90
41939;DHT22;23057;48.554;14.454;2023-06-10T12:03:37;18.50;99.90
41939;DHT22;23057;48.554;14.454;2023-06-10T12:06:08;18.50;99.90
41939;DHT22;23057;48.554;14.454;2023-06-10T12:08:42;18.50;1.00
41939;DHT22;23057;48.554;14.454;2023-06-10T12:11:14;18.70;1.00
41939;DHT22;23057;48.554;14.454;2023-06-10T12:13:45;17.90;7.40
41939;DHT22;23057;48.554;14.454;2023-06-10T12:16:21;17.50;99.90
41939;DHT22;23057;48.554;14.454;2023-06-10T12:19:00;17.40;99.80
41939;DHT22;23057;48.554;14.454;2023-06-10T12:21:33;17.40;99.90
41939;DHT22;23057;48.554;14.454;2023-06-10T12:24:08;17.10;99.90
41939;DHT22;23057;48.554;14.454;2023-06-10T12:26:42;16.90;99.90
41939;DHT22;23057;48.554;14.454;2023-06-10T12:29:18;16.80;99.90
41939;DHT22;23057;48.554;14.454;2023-06-10T12:31:55;16.60;99.90
41939;DHT22;23057;48.554;14.454;2023-06-10T12:37:06;16.50;99.90
41939;DHT22;23057;48.554;14.454;2023-06-10T12:39:51;16.60;99.90
41939;DHT22;23057;48.554;14.454;2023-06-10T12:42:26;16.60;99.90
41939;DHT22;23057;48.554;14.454;2023-06-10T12:44:57;16.50;99.90
41939;DHT22;23057;48.554;14.454;2023-06-10T12:47:31;16.60;99.90
41939;DHT22;23057;48.554;14.454;2023-06-10T12:50:14;16.70;99.90
41939;DHT22;23057;48.554;14.454;2023-06-10T12:52:45;16.80;99.90
41939;DHT22;23057;48.554;14.454;2023-06-10T12:55:16;16.90;99.90
41939;DHT22;23057;48.554;14.454;2023-06-10T12:57:47;16.80;99.90
41939;DHT22;23057;48.554;14.454;2023-06-10T13:00:20;16.90;99.90
41939;DHT22;23057;48.554;14.454;2023-06-10T13:02:51;17.10;99.90
41939;DHT22;23057;48.554;14.454;2023-06-10T13:05:25;17.20;99.90
41939;DHT22;23057;48.554;14.454;2023-06-10T13:07:56;17.20;99.90
41939;DHT22;23057;48.554;14.454;2023-06-10T13:10:27;17.30;99.90
41939;DHT22;23057;48.554;14.454;2023-06-10T13:12:59;17.40;99.90
41939;DHT22;23057;48.554;14.454;2023-06-10T13:15:32;17.50;99.90
41939;DHT22;23057;48.554;14.454;2023-06-10T13:18:06;17.70;99.90
41939;DHT22;23057;48.554;14.454;2023-06-10T13:20:37;17.80;99.90
41939;DHT22;23057;48.554;14.454;2023-06-10T13:23:07;18.00;99.90
41939;DHT22;23057;48.554;14.454;2023-06-10T13:25:38;18.10;99.90
41939;DHT22;23057;48.554;14.454;2023-06-10T13:28:10;17.90;99.90
41939;DHT22;23057;48.554;14.454;2023-06-10T13:30:42;17.80;99.90
41939;DHT22;23057;48.554;14.454;2023-06-10T13:33:12;17.80;99.90
41939;DHT22;23057;48.554;14.454;2023-06-10T13:35:43;17.90;99.90
41939;DHT22;23057;48.554;14.454;2023-06-10T13:38:14;17.90;99.90
41939;DHT22;23057;48.554;14.454;2023-06-10T13:40:45;18.00;99.90
41939;DHT22;23057;48.554;14.454;2023-06-10T13:43:16;18.20;99.90
41939;DHT22;23057;48.554;14.454;2023-06-10T13:45:47;18.30;99.90
41939;DHT22;23057;48.554;14.454;2023-06-10T13:48:18;18.30;99.90
41939;DHT22;23057;48.554;14.454;2023-06-10T13:50:50;18.40;99.90
41939;DHT22;23057;48.554;14.454;2023-06-10T13:53:21;18.60;99.90
41939;DHT22;23057;48.554;14.454;2023-06-10T13:55:51;18.30;99.90
41939;DHT22;23057;48.554;14.454;2023-06-10T13:58:22;18.30;99.90
41939;DHT22;23057;48.554;14.454;2023-06-10T14:00:53;18.30;99.90
41939;DHT22;23057;48.554;14.454;2023-06-10T14:03:23;18.20;99.90
41939;DHT22;23057;48.554;14.454;2023-06-10T14:05:55;18.40;99.90
41939;DHT22;23057;48.554;14.454;2023-06-10T14:08:25;18.60;99.90
41939;DHT22;23057;48.554;14.454;2023-06-10T14:10:56;18.70;99.90
41939;DHT22;23057;48.554;14.454;2023-06-10T14:13:27;18.40;99.90
41939;DHT22;23057;48.554;14.454;2023-06-10T14:15:58;18.40;99.90
41939;DHT22;23057;48.554;14.454;2023-06-10T14:18:32;18.60;99.90
41939;DHT22;23057;48.554;14.454;2023-06-10T14:21:03;18.10;99.90
41939;DHT22;23057;48.554;14.454;2023-06-10T14:23:34;17.90;99.90
41939;DHT22;23057;48.554;14.454;2023-06-10T14:26:05;17.30;99.90
41939;DHT22;23057;48.554;14.454;2023-06-10T14:28:37;17.10;99.90
41939;DHT22;23057;48.554;14.454;2023-06-10T14:31:08;17.10;99.90
41939;DHT22;23057;48.554;14.454;2023-06-10T14:33:38;16.90;99.90
41939;DHT22;23057;48.554;14.454;2023-06-10T14:36:12;16.80;99.90
41939;DHT22;23057;48.554;14.454;2023-06-10T14:38:43;16.80;99.90
41939;DHT22;23057;48.554;14.454;2023-06-10T14:41:14;16.80;99.90
41939;DHT22;23057;48.554;14.454;2023-06-10T14:43:44;16.80;99.90
41939;DHT22;23057;48.554;14.454;2023-06-10T14:46:15;16.60;99.90
41939;DHT22;23057;48.554;14.454;2023-06-10T14:48:46;16.60;99.90
41939;DHT22;23057;48.554;14.454;2023-06-10T14:51:17;16.50;99.90
41939;DHT22;23057;48.554;14.454;2023-06-10T14:53:47;16.40;99.90
41939;DHT22;23057;48.554;14.454;2023-06-10T14:56:18;16.40;99.90
41939;DHT22;23057;48.554;14.454;2023-06-10T14:58:49;16.40;99.90
41939;DHT22;23057;48.554;14.454;2023-06-10T15:01:20;16.30;99.90
41939;DHT22;23057;48.554;14.454;2023-06-10T15:03:50;16.20;99.90
41939;DHT22;23057;48.554;14.454;2023-06-10T15:06:21;16.20;99.90
41939;DHT22;23057;48.554;14.454;2023-06-10T15:08:53;16.40;99.90
41939;DHT22;23057;48.554;14.454;2023-06-10T15:11:23;16.30;99.90
41939;DHT22;23057;48.554;14.454;2023-06-10T15:13:54;16.30;99.90
41939;DHT22;23057;48.554;14.454;2023-06-10T15:16:25;16.30;99.90
41939;DHT22;23057;48.554;14.454;2023-06-10T15:18:56;16.40;99.90
41939;DHT22;23057;48.554;14.454;2023-06-10T15:21:27;16.30;99.90
41939;DHT22;23057;48.554;14.454;2023-06-10T15:23:57;16.20;99.90
41939;DHT22;23057;48.554;14.454;2023-06-10T15:26:28;16.20;99.90
41939;DHT22;23057;48.554;14.454;2023-06-10T15:28:59;16.40;99.90
41939;DHT22;23057;48.554;14.454;2023-06-10T15:31:34;16.30;99.90
41939;DHT22;23057;48.554;14.454;2023-06-10T15:34:05;16.30;99.90
41939;DHT22;23057;48.554;14.454;2023-06-10T15:36:37;16.40;99.90
41939;DHT22;23057;48.554;14.454;2023-06-10T15:39:07;16.40;99.90
41939;DHT22;23057;48.554;14.454;2023-06-10T15:41:38;16.30;99.90
41939;DHT22;23057;48.554;14.454;2023-06-10T15:44:09;16.30;99.90
41939;DHT22;23057;48.554;14.454;2023-06-10T15:46:40;16.30;99.90
41939;DHT22;23057;48.554;14.454;2023-06-10T15:49:10;16.20;99.90
41939;DHT22;23057;48.554;14.454;2023-06-10T15:51:41;16.20;99.90
41939;DHT22;23057;48.554;14.454;2023-06-10T15:54:12;16.20;99.90